Time;durP1;ratioP1;P1;durP2;ratioP2;P2;SDS_P1;SDS_P2;PMS_P1;PMS_P2;Temp;Humidity;BMP_temperature;BMP_pressure;BME280_temperature;BME280_humidity;BME280_pressure;Samples;Min_cycle;Max_cycle;Signal;HPM_P1;HPM_P2
2023/03/23 00:02:27;;;;;;;;;;;13.50;99.90;;;;;;5025751;28;21156;-64
2023/03/23 00:04:53;;;;;;;;;;;13.60;99.90;;;;;;5023469;28;19940;-64
2023/03/23 00:07:21;;;;;;;;;;;13.50;99.90;;;;;;5027823;28;20387;-64
2023/03/23 00:09:47;;;;;;;;;;;13.50;99.90;;;;;;5027805;28;20348;-64
2023/03/23 00:12:15;;;;;;;;;;;13.50;99.90;;;;;;5027950;28;19997;-64
2023/03/23 00:14:40;;;;;;;;;;;13.50;99.90;;;;;;5027227;28;19928;-64
2023/03/23 00:17:09;;;;;;;;;;;13.50;99.90;;;;;;5025604;28;19913;-61
2023/03/23 00:19:45;;;;;;;;;;;13.50;99.90;;;;;;5026448;28;19919;-63
2023/03/23 00:22:11;;;;;;;;;;;13.50;99.90;;;;;;5027732;28;19923;-63
2023/03/23 00:24:37;;;;;;;;;;;13.40;99.90;;;;;;5026436;28;20648;-64
2023/03/23 00:27:02;;;;;;;;;;;13.50;99.90;;;;;;5026583;28;19917;-63
2023/03/23 00:29:28;;;;;;;;;;;13.50;99.90;;;;;;5026792;28;19975;-63
2023/03/23 00:31:53;;;;;;;;;;;13.50;99.90;;;;;;5025098;28;19988;-63
2023/03/23 00:34:20;;;;;;;;;;;13.50;99.90;;;;;;5030053;28;19967;-61
2023/03/23 00:36:47;;;;;;;;;;;13.50;99.90;;;;;;5024938;28;19919;-63
2023/03/23 00:39:12;;;;;;;;;;;13.50;99.90;;;;;;5027211;28;20550;-63
2023/03/23 00:41:38;;;;;;;;;;;13.50;99.90;;;;;;5025891;28;19913;-63
2023/03/23 00:44:04;;;;;;;;;;;13.40;99.90;;;;;;5029399;28;19981;-63
2023/03/23 00:46:29;;;;;;;;;;;13.40;99.90;;;;;;5023837;28;19918;-63
2023/03/23 00:48:56;;;;;;;;;;;13.40;99.90;;;;;;5026890;28;19964;-63
2023/03/23 00:51:22;;;;;;;;;;;13.40;99.90;;;;;;5028020;28;19913;-63
2023/03/23 00:53:47;;;;;;;;;;;13.40;99.90;;;;;;5024865;28;19943;-63
2023/03/23 00:56:13;;;;;;;;;;;13.40;99.90;;;;;;5026935;28;19918;-63
2023/03/23 00:58:39;;;;;;;;;;;13.40;99.90;;;;;;5021650;28;20402;-63
2023/03/23 01:01:05;;;;;;;;;;;13.40;99.90;;;;;;5025001;28;19995;-64
2023/03/23 01:03:30;;;;;;;;;;;13.40;99.90;;;;;;5025482;28;19921;-62
2023/03/23 01:05:56;;;;;;;;;;;13.30;99.90;;;;;;5028859;28;19920;-63
2023/03/23 01:08:22;;;;;;;;;;;13.30;99.90;;;;;;5026284;28;20259;-63
2023/03/23 01:10:48;;;;;;;;;;;13.30;99.90;;;;;;5025894;28;19925;-64
2023/03/23 01:13:15;;;;;;;;;;;13.30;99.90;;;;;;5025371;28;19983;-63
2023/03/23 01:15:41;;;;;;;;;;;13.30;99.90;;;;;;5023509;28;20017;-63
2023/03/23 01:18:07;;;;;;;;;;;13.30;99.90;;;;;;5027600;28;19913;-63
2023/03/23 01:20:34;;;;;;;;;;;13.30;99.90;;;;;;5027766;28;19920;-63
2023/03/23 01:23:00;;;;;;;;;;;13.30;99.90;;;;;;5027325;28;20008;-63
2023/03/23 01:25:30;;;;;;;;;;;13.30;99.90;;;;;;5026828;28;20655;-62
2023/03/23 01:27:55;;;;;;;;;;;13.40;99.90;;;;;;5029125;28;20290;-63
2023/03/23 01:30:21;;;;;;;;;;;13.40;99.90;;;;;;5027577;28;19924;-63
2023/03/23 01:32:46;;;;;;;;;;;13.40;99.90;;;;;;5027390;28;20394;-63
2023/03/23 01:35:13;;;;;;;;;;;13.40;99.90;;;;;;5026417;28;19920;-63
2023/03/23 01:37:38;;;;;;;;;;;13.40;99.90;;;;;;5028633;28;19976;-63
2023/03/23 01:40:04;;;;;;;;;;;13.40;99.90;;;;;;5025297;28;19964;-63
2023/03/23 01:42:32;;;;;;;;;;;13.40;99.90;;;;;;5027212;28;19913;-63
2023/03/23 01:45:21;;;;;;;;;;;13.40;99.90;;;;;;5026963;28;19917;-63
2023/03/23 01:47:49;;;;;;;;;;;13.30;99.90;;;;;;5027425;28;19914;-63
2023/03/23 01:50:15;;;;;;;;;;;13.20;99.90;;;;;;5027833;28;19921;-63
2023/03/23 01:52:41;;;;;;;;;;;13.20;99.90;;;;;;5028027;28;19963;-64
2023/03/23 01:55:06;;;;;;;;;;;13.10;99.90;;;;;;5026325;28;20448;-64
2023/03/23 01:57:33;;;;;;;;;;;13.00;99.90;;;;;;5026946;28;19917;-65
2023/03/23 02:00:00;;;;;;;;;;;12.90;99.90;;;;;;5025644;28;19963;-64
2023/03/23 02:02:26;;;;;;;;;;;12.90;99.90;;;;;;5026257;28;20369;-63
2023/03/23 02:04:55;;;;;;;;;;;12.80;99.90;;;;;;5026134;28;20383;-63
2023/03/23 02:07:21;;;;;;;;;;;12.80;99.90;;;;;;5030542;28;19913;-63
2023/03/23 02:09:46;;;;;;;;;;;12.70;99.90;;;;;;5028036;28;19920;-63
2023/03/23 02:12:12;;;;;;;;;;;12.70;99.90;;;;;;5028933;28;19913;-63
2023/03/23 02:14:37;;;;;;;;;;;12.70;99.90;;;;;;5026669;28;20003;-62
2023/03/23 02:17:03;;;;;;;;;;;12.70;99.90;;;;;;5032305;28;19913;-63
2023/03/23 02:19:41;;;;;;;;;;;12.60;99.90;;;;;;5031212;28;19917;-62
2023/03/23 02:22:12;;;;;;;;;;;12.70;99.90;;;;;;5029233;28;20354;-64
2023/03/23 02:24:58;;;;;;;;;;;12.70;99.90;;;;;;5027839;28;19924;-63
2023/03/23 02:27:42;;;;;;;;;;;12.70;99.90;;;;;;5026370;28;19923;-63
2023/03/23 02:30:26;;;;;;;;;;;12.60;99.90;;;;;;5027912;28;19932;-64
2023/03/23 02:33:10;;;;;;;;;;;12.50;99.90;;;;;;5028944;28;19921;-65
2023/03/23 02:35:38;;;;;;;;;;;12.40;99.90;;;;;;5029026;28;19917;-64
2023/03/23 02:38:09;;;;;;;;;;;12.40;99.90;;;;;;5029973;28;20012;-64
2023/03/23 02:40:39;;;;;;;;;;;12.40;99.90;;;;;;5030033;28;20397;-64
2023/03/23 02:43:07;;;;;;;;;;;12.40;99.90;;;;;;5028577;28;19920;-64
2023/03/23 02:45:33;;;;;;;;;;;12.40;99.90;;;;;;5025609;28;19914;-63
2023/03/23 02:47:59;;;;;;;;;;;12.40;99.90;;;;;;5028531;28;19913;-64
2023/03/23 02:50:27;;;;;;;;;;;12.40;99.90;;;;;;5028454;28;19925;-63
2023/03/23 02:52:54;;;;;;;;;;;12.40;99.90;;;;;;5028222;28;20011;-63
2023/03/23 02:55:22;;;;;;;;;;;12.50;99.90;;;;;;5029114;28;20377;-64
2023/03/23 02:57:50;;;;;;;;;;;12.50;99.90;;;;;;5027895;28;19921;-63
2023/03/23 03:00:16;;;;;;;;;;;12.50;99.90;;;;;;5026171;28;19921;-62
2023/03/23 03:02:43;;;;;;;;;;;12.50;99.90;;;;;;5028056;28;19920;-62
2023/03/23 03:05:27;;;;;;;;;;;12.50;99.90;;;;;;5028109;28;19913;-62
2023/03/23 03:08:01;;;;;;;;;;;12.50;99.90;;;;;;5030734;28;19913;-63
2023/03/23 03:10:26;;;;;;;;;;;12.50;99.90;;;;;;5026669;28;19970;-63
2023/03/23 03:12:58;;;;;;;;;;;12.50;99.90;;;;;;5028603;28;19917;-63
2023/03/23 03:15:26;;;;;;;;;;;12.60;99.90;;;;;;5023032;28;19921;-63
2023/03/23 03:18:11;;;;;;;;;;;12.60;99.90;;;;;;5030091;28;19921;-63
2023/03/23 03:20:40;;;;;;;;;;;12.50;99.90;;;;;;5026828;28;20319;-63
2023/03/23 03:23:07;;;;;;;;;;;12.60;99.90;;;;;;5027604;28;19921;-63
2023/03/23 03:25:33;;;;;;;;;;;12.50;99.90;;;;;;5029127;28;19913;-63
2023/03/23 03:27:58;;;;;;;;;;;12.60;99.90;;;;;;5027595;28;19925;-63
2023/03/23 03:30:26;;;;;;;;;;;12.60;99.90;;;;;;5028993;28;19952;-63
2023/03/23 03:32:53;;;;;;;;;;;12.60;99.90;;;;;;5029966;28;20067;-63
2023/03/23 03:35:20;;;;;;;;;;;12.60;99.90;;;;;;5026088;28;20389;-63
2023/03/23 03:37:46;;;;;;;;;;;12.50;99.90;;;;;;5027859;28;19913;-63
2023/03/23 03:40:13;;;;;;;;;;;12.50;99.90;;;;;;5028393;28;19913;-63
2023/03/23 03:42:39;;;;;;;;;;;12.50;99.90;;;;;;5023881;28;19979;-63
2023/03/23 03:45:07;;;;;;;;;;;12.40;99.90;;;;;;5024918;28;20010;-63
2023/03/23 03:47:32;;;;;;;;;;;12.40;99.90;;;;;;5026055;28;19913;-63
2023/03/23 03:49:58;;;;;;;;;;;12.40;99.90;;;;;;5028105;28;20264;-63
2023/03/23 03:52:23;;;;;;;;;;;12.40;99.90;;;;;;5028368;28;19925;-63
2023/03/23 03:54:49;;;;;;;;;;;12.40;99.90;;;;;;5025256;28;19921;-62
2023/03/23 03:57:14;;;;;;;;;;;12.40;99.90;;;;;;5027482;28;19924;-62
2023/03/23 03:59:40;;;;;;;;;;;12.40;99.90;;;;;;5025412;28;20435;-63
2023/03/23 04:02:06;;;;;;;;;;;12.40;99.90;;;;;;5028608;28;19913;-63
2023/03/23 04:04:31;;;;;;;;;;;12.40;99.90;;;;;;5027678;28;20284;-63
2023/03/23 04:06:57;;;;;;;;;;;12.40;99.90;;;;;;5027681;28;19921;-63
2023/03/23 04:09:22;;;;;;;;;;;12.40;99.90;;;;;;5027253;28;19979;-63
2023/03/23 04:11:48;;;;;;;;;;;12.40;99.90;;;;;;5026129;28;20458;-63
2023/03/23 04:14:13;;;;;;;;;;;12.40;99.90;;;;;;5028034;28;19949;-63
2023/03/23 04:16:40;;;;;;;;;;;12.40;99.90;;;;;;5024248;28;19916;-62
2023/03/23 04:19:05;;;;;;;;;;;12.40;99.90;;;;;;5028698;28;19914;-62
2023/03/23 04:21:31;;;;;;;;;;;12.40;99.90;;;;;;5026805;28;20015;-63
2023/03/23 04:23:58;;;;;;;;;;;12.40;99.90;;;;;;5027243;28;19917;-63
2023/03/23 04:26:25;;;;;;;;;;;12.30;99.90;;;;;;5024205;28;20723;-62
2023/03/23 04:28:51;;;;;;;;;;;12.40;99.90;;;;;;5028688;28;19936;-62
2023/03/23 04:31:17;;;;;;;;;;;12.40;99.90;;;;;;5026453;28;19988;-62
2023/03/23 04:33:43;;;;;;;;;;;12.40;99.90;;;;;;5027835;28;19983;-61
2023/03/23 04:36:08;;;;;;;;;;;12.50;99.90;;;;;;5027903;28;19928;-61
2023/03/23 04:38:34;;;;;;;;;;;12.40;99.90;;;;;;5028413;28;20480;-60
2023/03/23 04:41:01;;;;;;;;;;;12.40;99.90;;;;;;5026459;28;20278;-61
2023/03/23 04:43:27;;;;;;;;;;;12.50;99.90;;;;;;5026295;28;19913;-63
2023/03/23 04:45:57;;;;;;;;;;;12.50;99.90;;;;;;5026472;28;20004;-63
2023/03/23 04:48:26;;;;;;;;;;;12.40;99.90;;;;;;5027505;28;19913;-63
2023/03/23 04:50:52;;;;;;;;;;;12.40;99.90;;;;;;5027992;28;19917;-62
2023/03/23 04:53:17;;;;;;;;;;;12.40;99.90;;;;;;5025804;28;20032;-62
2023/03/23 04:55:43;;;;;;;;;;;12.40;99.90;;;;;;5027391;28;20379;-63
2023/03/23 04:58:08;;;;;;;;;;;12.50;99.90;;;;;;5028010;28;19913;-62
2023/03/23 05:00:35;;;;;;;;;;;12.50;99.90;;;;;;5028120;28;19914;-63
2023/03/23 05:03:00;;;;;;;;;;;12.50;99.90;;;;;;5028230;28;20390;-63
2023/03/23 05:05:27;;;;;;;;;;;12.50;99.90;;;;;;5025906;28;19913;-62
2023/03/23 05:07:53;;;;;;;;;;;12.40;99.90;;;;;;5029387;28;19966;-64
2023/03/23 05:10:18;;;;;;;;;;;12.40;99.90;;;;;;5025317;28;20011;-63
2023/03/23 05:12:44;;;;;;;;;;;12.40;99.90;;;;;;5029619;28;20006;-63
2023/03/23 05:15:11;;;;;;;;;;;12.40;99.90;;;;;;5027938;28;19956;-62
2023/03/23 05:17:36;;;;;;;;;;;12.40;99.90;;;;;;5028028;28;19913;-62
2023/03/23 05:20:09;;;;;;;;;;;12.40;99.90;;;;;;5029213;28;19988;-63
2023/03/23 05:22:36;;;;;;;;;;;12.40;99.90;;;;;;5027847;28;19913;-63
2023/03/23 05:25:05;;;;;;;;;;;12.40;99.90;;;;;;5027559;28;19913;-62
2023/03/23 05:27:32;;;;;;;;;;;12.40;99.90;;;;;;5028079;28;19917;-63
2023/03/23 05:29:58;;;;;;;;;;;12.40;99.90;;;;;;5030185;28;19956;-63
2023/03/23 05:32:28;;;;;;;;;;;12.40;99.90;;;;;;5027646;28;19913;-63
2023/03/23 05:34:57;;;;;;;;;;;12.40;99.90;;;;;;5028769;28;19913;-63
2023/03/23 05:37:23;;;;;;;;;;;12.40;99.90;;;;;;5023288;28;19913;-63
2023/03/23 05:39:48;;;;;;;;;;;12.40;99.90;;;;;;5025232;28;19920;-62
2023/03/23 05:42:14;;;;;;;;;;;12.40;99.90;;;;;;5028990;28;20283;-63
2023/03/23 05:44:39;;;;;;;;;;;12.40;99.90;;;;;;5034020;28;20769;-63
2023/03/23 05:47:05;;;;;;;;;;;12.40;99.90;;;;;;5024945;28;19917;-63
2023/03/23 05:49:30;;;;;;;;;;;12.30;99.90;;;;;;5026422;28;19917;-63
2023/03/23 05:51:56;;;;;;;;;;;12.30;99.90;;;;;;5031677;28;19971;-63
2023/03/23 05:54:21;;;;;;;;;;;12.30;99.90;;;;;;5026452;28;19974;-63
2023/03/23 05:56:48;;;;;;;;;;;12.30;99.90;;;;;;5026342;28;20471;-60
2023/03/23 05:59:14;;;;;;;;;;;12.20;99.90;;;;;;5033056;28;19914;-55
2023/03/23 06:01:40;;;;;;;;;;;12.20;99.90;;;;;;5030890;28;19921;-61
2023/03/23 06:04:05;;;;;;;;;;;12.30;99.90;;;;;;5027917;28;19913;-57
2023/03/23 06:06:32;;;;;;;;;;;12.30;99.90;;;;;;5031516;28;19914;-56
2023/03/23 06:08:58;;;;;;;;;;;12.30;99.90;;;;;;5027360;28;20006;-58
2023/03/23 06:11:24;;;;;;;;;;;12.30;99.90;;;;;;5027851;28;19961;-57
2023/03/23 06:13:50;;;;;;;;;;;12.40;99.90;;;;;;5030145;28;19913;-57
2023/03/23 06:16:16;;;;;;;;;;;12.50;99.90;;;;;;5032337;28;20465;-55
2023/03/23 06:18:42;;;;;;;;;;;12.50;99.90;;;;;;5032262;28;20039;-57
2023/03/23 06:21:08;;;;;;;;;;;12.60;99.90;;;;;;5032996;28;19913;-57
2023/03/23 06:23:33;;;;;;;;;;;12.60;99.90;;;;;;5032881;28;20071;-56
2023/03/23 06:26:00;;;;;;;;;;;12.70;99.90;;;;;;5029968;28;19913;-58
2023/03/23 06:28:26;;;;;;;;;;;12.80;99.90;;;;;;5030707;28;19917;-54
2023/03/23 06:30:52;;;;;;;;;;;12.80;99.90;;;;;;5028399;28;20000;-55
2023/03/23 06:33:18;;;;;;;;;;;12.80;99.90;;;;;;5027835;28;20367;-56
2023/03/23 06:35:43;;;;;;;;;;;12.80;99.90;;;;;;5028956;28;20298;-57
2023/03/23 06:38:09;;;;;;;;;;;12.90;99.90;;;;;;5029177;28;19932;-56
2023/03/23 06:40:35;;;;;;;;;;;12.90;99.90;;;;;;5031834;28;20000;-56
2023/03/23 06:43:01;;;;;;;;;;;12.90;99.90;;;;;;5033123;28;19914;-54
2023/03/23 06:45:26;;;;;;;;;;;13.00;99.90;;;;;;5032168;28;19987;-57
2023/03/23 06:47:52;;;;;;;;;;;13.00;99.90;;;;;;5032934;28;20026;-53
2023/03/23 06:50:18;;;;;;;;;;;13.00;99.90;;;;;;5031955;28;20440;-58
2023/03/23 06:52:47;;;;;;;;;;;13.00;99.90;;;;;;5032612;28;19913;-58
2023/03/23 06:55:13;;;;;;;;;;;13.10;99.90;;;;;;5024763;28;19920;-56
2023/03/23 06:57:39;;;;;;;;;;;13.10;99.90;;;;;;5031931;28;19913;-56
2023/03/23 07:00:13;;;;;;;;;;;13.10;99.90;;;;;;5030156;28;19916;-58
2023/03/23 07:02:42;;;;;;;;;;;13.10;99.90;;;;;;5031617;28;20319;-57
2023/03/23 07:05:08;;;;;;;;;;;13.20;99.90;;;;;;5022834;28;20029;-56
2023/03/23 07:07:35;;;;;;;;;;;13.20;99.90;;;;;;5029070;28;20290;-58
2023/03/23 07:10:01;;;;;;;;;;;13.20;99.90;;;;;;5028997;28;19920;-58
2023/03/23 07:12:27;;;;;;;;;;;13.20;99.90;;;;;;5028916;28;20454;-58
2023/03/23 07:14:52;;;;;;;;;;;13.20;99.90;;;;;;5032083;28;19913;-58
2023/03/23 07:17:18;;;;;;;;;;;13.20;99.90;;;;;;5029423;28;20020;-56
2023/03/23 07:19:43;;;;;;;;;;;13.30;99.90;;;;;;5030620;28;19913;-56
2023/03/23 07:22:09;;;;;;;;;;;13.30;99.90;;;;;;5032585;28;19917;-57
2023/03/23 07:24:35;;;;;;;;;;;13.30;99.90;;;;;;5028491;28;19913;-57
2023/03/23 07:27:01;;;;;;;;;;;13.40;99.90;;;;;;5028555;28;19919;-58
2023/03/23 07:29:26;;;;;;;;;;;13.40;99.90;;;;;;5025264;28;19917;-57
2023/03/23 07:31:52;;;;;;;;;;;13.40;99.90;;;;;;5024445;28;19917;-57
2023/03/23 07:34:18;;;;;;;;;;;13.50;99.90;;;;;;5026902;28;19925;-57
2023/03/23 07:36:44;;;;;;;;;;;13.50;99.90;;;;;;5029825;28;20363;-58
2023/03/23 07:39:10;;;;;;;;;;;13.50;99.90;;;;;;5027190;28;20030;-56
2023/03/23 07:41:35;;;;;;;;;;;13.50;99.90;;;;;;5030362;28;20012;-57
2023/03/23 07:44:01;;;;;;;;;;;13.50;99.90;;;;;;5026450;28;19913;-57
2023/03/23 07:46:26;;;;;;;;;;;13.60;99.90;;;;;;5029314;28;19921;-57
2023/03/23 07:48:52;;;;;;;;;;;13.60;99.90;;;;;;5025399;28;19917;-57
2023/03/23 07:51:17;;;;;;;;;;;13.60;99.90;;;;;;5025931;28;19956;-58
2023/03/23 07:53:46;;;;;;;;;;;13.70;99.90;;;;;;5026102;28;20334;-57
2023/03/23 07:56:14;;;;;;;;;;;13.70;99.90;;;;;;5030464;28;19954;-55
2023/03/23 07:58:40;;;;;;;;;;;13.70;99.90;;;;;;5029329;28;20378;-56
2023/03/23 08:01:06;;;;;;;;;;;13.70;99.90;;;;;;5028512;28;19927;-54
2023/03/23 08:03:32;;;;;;;;;;;13.80;99.90;;;;;;5027087;28;19999;-56
2023/03/23 08:05:59;;;;;;;;;;;13.80;99.90;;;;;;5024093;28;19913;-56
2023/03/23 08:08:24;;;;;;;;;;;13.90;99.90;;;;;;5027193;28;19913;-56
2023/03/23 08:10:50;;;;;;;;;;;13.90;99.90;;;;;;5022189;28;20326;-58
2023/03/23 08:13:15;;;;;;;;;;;13.90;99.90;;;;;;5029633;28;19937;-57
2023/03/23 08:15:41;;;;;;;;;;;14.00;99.90;;;;;;5022279;28;19917;-56
2023/03/23 08:18:07;;;;;;;;;;;14.00;99.90;;;;;;5026842;28;19960;-57
2023/03/23 08:20:32;;;;;;;;;;;14.00;99.90;;;;;;5026367;28;19913;-57
2023/03/23 08:22:58;;;;;;;;;;;14.00;99.90;;;;;;5026540;28;19925;-56
2023/03/23 08:25:25;;;;;;;;;;;14.00;99.90;;;;;;5028145;28;19920;-55
2023/03/23 08:27:51;;;;;;;;;;;14.10;99.90;;;;;;5024755;28;19914;-57
2023/03/23 08:30:19;;;;;;;;;;;14.10;99.90;;;;;;5029036;28;19982;-56
2023/03/23 08:32:45;;;;;;;;;;;14.20;99.90;;;;;;5031420;28;19909;-56
2023/03/23 08:35:11;;;;;;;;;;;14.20;99.90;;;;;;5029917;28;19909;-54
2023/03/23 08:37:37;;;;;;;;;;;14.20;99.90;;;;;;5030903;28;19913;-54
2023/03/23 08:40:09;;;;;;;;;;;14.30;99.90;;;;;;5031574;28;20007;-58
2023/03/23 08:42:37;;;;;;;;;;;14.30;99.90;;;;;;5030933;28;20283;-57
2023/03/23 08:45:03;;;;;;;;;;;14.30;99.90;;;;;;5030166;28;20413;-56
2023/03/23 08:47:29;;;;;;;;;;;14.40;99.90;;;;;;5031358;28;19909;-55
2023/03/23 08:49:54;;;;;;;;;;;14.50;99.90;;;;;;5031135;28;19919;-56
2023/03/23 08:52:20;;;;;;;;;;;14.50;99.90;;;;;;5030073;28;19921;-56
2023/03/23 08:54:47;;;;;;;;;;;14.60;99.90;;;;;;5028501;28;19919;-56
2023/03/23 08:57:14;;;;;;;;;;;14.50;99.90;;;;;;5030893;28;19913;-57
2023/03/23 08:59:40;;;;;;;;;;;14.60;99.90;;;;;;5030970;28;19916;-57
2023/03/23 09:02:06;;;;;;;;;;;14.60;99.90;;;;;;5031153;28;19940;-56
2023/03/23 09:04:31;;;;;;;;;;;14.60;99.90;;;;;;5031031;28;19909;-56
2023/03/23 09:06:57;;;;;;;;;;;14.60;99.90;;;;;;5029750;28;19917;-57
2023/03/23 09:09:23;;;;;;;;;;;14.70;99.90;;;;;;5031008;28;19972;-59
2023/03/23 09:11:49;;;;;;;;;;;14.80;99.90;;;;;;5031080;28;19913;-54
2023/03/23 09:14:14;;;;;;;;;;;14.90;99.90;;;;;;5031012;28;19917;-55
2023/03/23 09:16:40;;;;;;;;;;;15.00;99.90;;;;;;5030254;28;20370;-57
2023/03/23 09:19:08;;;;;;;;;;;15.00;99.90;;;;;;5034818;28;19928;-58
2023/03/23 09:21:34;;;;;;;;;;;15.10;99.90;;;;;;5033871;28;19913;-58
2023/03/23 09:24:01;;;;;;;;;;;15.20;99.90;;;;;;5034639;28;19916;-58
2023/03/23 09:26:27;;;;;;;;;;;15.30;99.90;;;;;;5034785;28;19913;-57
2023/03/23 09:28:52;;;;;;;;;;;15.40;99.90;;;;;;5034797;28;19913;-55
2023/03/23 09:31:22;;;;;;;;;;;15.30;99.90;;;;;;5035034;28;19917;-58
2023/03/23 09:33:51;;;;;;;;;;;15.30;99.90;;;;;;5034679;28;20021;-56
2023/03/23 09:36:17;;;;;;;;;;;15.30;99.90;;;;;;5029770;28;19959;-58
2023/03/23 09:38:43;;;;;;;;;;;15.30;99.90;;;;;;5033129;28;19913;-58
2023/03/23 09:41:27;;;;;;;;;;;15.30;99.90;;;;;;5034752;28;19909;-58
2023/03/23 09:44:11;;;;;;;;;;;15.40;99.90;;;;;;5034288;28;20017;-57
2023/03/23 09:46:56;;;;;;;;;;;15.40;99.90;;;;;;5034503;28;19909;-58
2023/03/23 09:49:25;;;;;;;;;;;15.40;99.90;;;;;;5031094;28;20055;-58
2023/03/23 09:51:53;;;;;;;;;;;15.40;99.90;;;;;;5033466;28;20068;-58
2023/03/23 09:54:21;;;;;;;;;;;15.20;99.90;;;;;;5034129;28;20379;-57
2023/03/23 09:56:47;;;;;;;;;;;15.20;99.90;;;;;;5034518;28;19917;-59
2023/03/23 09:59:24;;;;;;;;;;;15.10;99.90;;;;;;5034309;28;19909;-59
2023/03/23 10:01:55;;;;;;;;;;;15.20;99.90;;;;;;5030698;28;20386;-58
2023/03/23 10:04:27;;;;;;;;;;;15.20;99.90;;;;;;5034115;28;19909;-58
2023/03/23 10:06:56;;;;;;;;;;;15.20;99.90;;;;;;5032052;28;20394;-58
2023/03/23 10:09:22;;;;;;;;;;;15.10;99.90;;;;;;5034106;28;19913;-57
2023/03/23 10:11:58;;;;;;;;;;;15.20;99.90;;;;;;5034217;28;19913;-58
2023/03/23 10:14:28;;;;;;;;;;;15.30;99.90;;;;;;5034010;28;20595;-58
2023/03/23 10:17:08;;;;;;;;;;;15.30;99.90;;;;;;5033938;28;19917;-58
2023/03/23 10:19:50;;;;;;;;;;;15.40;99.90;;;;;;5032950;28;19913;-57
2023/03/23 10:22:17;;;;;;;;;;;15.40;99.90;;;;;;5033524;28;19956;-59
2023/03/23 10:24:48;;;;;;;;;;;15.50;99.90;;;;;;5033484;28;20324;-56
2023/03/23 10:27:18;;;;;;;;;;;15.40;99.90;;;;;;5033422;28;20359;-58
2023/03/23 10:29:55;;;;;;;;;;;15.40;99.90;;;;;;5033560;28;20000;-58
2023/03/23 10:32:24;;;;;;;;;;;15.30;99.90;;;;;;5033861;28;19951;-59
2023/03/23 10:34:52;;;;;;;;;;;15.10;99.90;;;;;;5032158;28;20069;-56
2023/03/23 10:37:21;;;;;;;;;;;15.00;99.90;;;;;;5033298;28;19913;-55
2023/03/23 10:39:52;;;;;;;;;;;14.90;99.90;;;;;;5032791;28;19955;-57
2023/03/23 10:42:28;;;;;;;;;;;14.80;99.90;;;;;;5033358;28;19909;-57
2023/03/23 10:44:56;;;;;;;;;;;14.80;99.90;;;;;;5033155;28;19920;-59
2023/03/23 10:47:22;;;;;;;;;;;14.80;99.90;;;;;;5033075;28;19909;-57
2023/03/23 10:49:53;;;;;;;;;;;14.90;99.90;;;;;;5032211;28;19917;-57
2023/03/23 10:52:37;;;;;;;;;;;14.90;99.90;;;;;;5033252;28;19996;-58
2023/03/23 10:55:03;;;;;;;;;;;14.90;99.90;;;;;;5032263;28;19913;-58
2023/03/23 10:57:29;;;;;;;;;;;14.90;99.90;;;;;;5033184;28;19913;-58
2023/03/23 11:00:01;;;;;;;;;;;15.00;99.90;;;;;;5032967;28;20326;-58
2023/03/23 11:02:28;;;;;;;;;;;15.10;99.90;;;;;;5033125;28;19929;-61
2023/03/23 11:04:59;;;;;;;;;;;15.30;99.90;;;;;;5030983;28;19917;-56
2023/03/23 11:07:29;;;;;;;;;;;15.40;99.90;;;;;;5030727;28;19913;-57
2023/03/23 11:09:56;;;;;;;;;;;15.30;99.90;;;;;;5028826;28;19963;-56
2023/03/23 11:12:22;;;;;;;;;;;15.40;99.90;;;;;;5028518;28;20000;-56
2023/03/23 11:14:48;;;;;;;;;;;15.40;99.90;;;;;;5032471;28;19913;-57
2023/03/23 11:17:24;;;;;;;;;;;15.50;99.90;;;;;;5029981;28;19917;-56
2023/03/23 11:19:50;;;;;;;;;;;15.60;99.90;;;;;;5028208;28;20000;-58
2023/03/23 11:22:18;;;;;;;;;;;15.60;99.90;;;;;;5032754;28;20417;-60
2023/03/23 11:24:45;;;;;;;;;;;15.60;99.90;;;;;;5031509;28;19912;-59
2023/03/23 11:27:11;;;;;;;;;;;15.50;99.90;;;;;;5030815;28;19917;-58
2023/03/23 11:29:48;;;;;;;;;;;15.50;99.90;;;;;;5031742;28;19939;-55
2023/03/23 11:32:14;;;;;;;;;;;15.50;99.90;;;;;;5032009;28;20006;-58
2023/03/23 11:34:41;;;;;;;;;;;15.40;99.90;;;;;;5032166;28;19909;-57
2023/03/23 11:37:12;;;;;;;;;;;15.50;99.90;;;;;;5029101;28;20411;-58
2023/03/23 11:39:53;;;;;;;;;;;15.50;99.90;;;;;;5029366;28;19924;-59
2023/03/23 11:42:20;;;;;;;;;;;15.50;99.90;;;;;;5032213;28;20426;-58
2023/03/23 11:44:46;;;;;;;;;;;15.40;99.90;;;;;;5026227;28;20031;-58
2023/03/23 11:47:31;;;;;;;;;;;15.30;99.90;;;;;;5025557;28;19917;-59
2023/03/23 11:49:56;;;;;;;;;;;15.30;99.90;;;;;;5025117;28;20371;-59
2023/03/23 11:52:29;;;;;;;;;;;15.30;99.90;;;;;;5029242;28;19920;-60
2023/03/23 11:55:07;;;;;;;;;;;15.20;99.90;;;;;;5026866;28;19916;-59
2023/03/23 11:57:33;;;;;;;;;;;15.10;99.90;;;;;;5026432;28;19943;-58
2023/03/23 12:00:00;;;;;;;;;;;15.20;99.90;;;;;;5026542;28;19970;-60
2023/03/23 12:02:38;;;;;;;;;;;15.30;99.90;;;;;;5028087;28;19928;-58
2023/03/23 12:05:15;;;;;;;;;;;15.30;99.90;;;;;;5028733;28;19917;-59
2023/03/23 12:07:41;;;;;;;;;;;15.30;99.90;;;;;;5027038;28;19928;-58
2023/03/23 12:10:22;;;;;;;;;;;15.40;99.90;;;;;;5029018;28;19917;-59
2023/03/23 12:13:14;;;;;;;;;;;15.40;99.90;;;;;;5026285;28;19917;-58
2023/03/23 12:15:52;;;;;;;;;;;15.50;99.90;;;;;;5026238;28;19921;-59
2023/03/23 12:18:30;;;;;;;;;;;15.50;99.90;;;;;;5027654;28;19921;-59
2023/03/23 12:20:56;;;;;;;;;;;15.40;99.90;;;;;;5028962;28;19923;-57
2023/03/23 12:23:40;;;;;;;;;;;15.60;99.90;;;;;;5029023;28;20282;-58
2023/03/23 12:26:26;;;;;;;;;;;15.80;99.90;;;;;;5028131;28;20500;-59
2023/03/23 12:29:10;;;;;;;;;;;16.10;99.90;;;;;;5024767;28;20357;-59
2023/03/23 12:31:49;;;;;;;;;;;16.10;99.90;;;;;;5027067;28;20401;-58
2023/03/23 12:34:34;;;;;;;;;;;16.10;99.90;;;;;;5027673;28;19913;-58
2023/03/23 12:37:08;;;;;;;;;;;16.00;99.90;;;;;;5024675;28;19913;-58
2023/03/23 12:39:43;;;;;;;;;;;15.90;99.90;;;;;;5026331;28;19923;-58
2023/03/23 12:42:09;;;;;;;;;;;15.90;99.90;;;;;;5027974;28;20330;-60
2023/03/23 12:44:43;;;;;;;;;;;15.90;99.90;;;;;;5026517;28;19917;-59
2023/03/23 12:47:17;;;;;;;;;;;15.80;99.90;;;;;;5027278;28;19967;-59
2023/03/23 12:49:53;;;;;;;;;;;15.80;99.90;;;;;;5028118;28;19971;-59
2023/03/23 12:52:18;;;;;;;;;;;15.90;99.90;;;;;;5025957;28;20048;-59
2023/03/23 12:54:45;;;;;;;;;;;16.00;99.90;;;;;;5027350;28;20349;-60
2023/03/23 12:57:14;;;;;;;;;;;16.00;99.90;;;;;;5025140;28;19991;-58
2023/03/23 12:59:49;;;;;;;;;;;16.00;99.90;;;;;;5025698;28;19924;-58
2023/03/23 13:02:23;;;;;;;;;;;16.10;99.90;;;;;;5027436;28;19913;-59
2023/03/23 13:05:07;;;;;;;;;;;16.20;99.90;;;;;;5023426;28;19917;-58
2023/03/23 13:07:38;;;;;;;;;;;16.40;99.90;;;;;;5025647;28;19975;-59
2023/03/23 13:10:22;;;;;;;;;;;16.50;99.90;;;;;;5021842;28;19975;-58
2023/03/23 13:12:48;;;;;;;;;;;16.50;99.90;;;;;;5023011;28;19913;-59
2023/03/23 13:15:18;;;;;;;;;;;16.70;99.90;;;;;;5025653;28;19917;-59
2023/03/23 13:17:51;;;;;;;;;;;16.80;99.90;;;;;;5026261;28;19917;-57
2023/03/23 13:20:35;;;;;;;;;;;16.80;99.90;;;;;;5027527;28;20303;-59
2023/03/23 13:23:21;;;;;;;;;;;16.70;99.90;;;;;;5025538;28;19966;-58
2023/03/23 13:25:49;;;;;;;;;;;16.50;99.90;;;;;;5020721;28;20008;-58
2023/03/23 13:28:17;;;;;;;;;;;16.30;99.90;;;;;;5028288;28;20466;-58
2023/03/23 13:30:52;;;;;;;;;;;16.20;99.90;;;;;;5030469;28;19928;-58
2023/03/23 13:33:18;;;;;;;;;;;16.20;99.90;;;;;;5025753;28;19917;-56
2023/03/23 13:35:43;;;;;;;;;;;16.10;99.90;;;;;;5025382;28;20078;-57
2023/03/23 13:38:24;;;;;;;;;;;16.00;99.90;;;;;;5029802;28;19917;-59
2023/03/23 13:40:50;;;;;;;;;;;16.00;99.90;;;;;;5023559;28;19913;-58
2023/03/23 13:43:25;;;;;;;;;;;15.90;99.90;;;;;;5025165;28;19964;-59
2023/03/23 13:45:51;;;;;;;;;;;15.80;99.90;;;;;;5027615;28;20014;-57
2023/03/23 13:48:17;;;;;;;;;;;16.00;99.90;;;;;;5027632;28;19959;-58
2023/03/23 13:50:48;;;;;;;;;;;16.30;99.90;;;;;;5027980;28;19918;-57
2023/03/23 13:53:15;;;;;;;;;;;16.70;99.90;;;;;;5027357;28;19913;-58
2023/03/23 13:55:42;;;;;;;;;;;17.40;99.90;;;;;;5027093;28;19965;-58
2023/03/23 13:58:07;;;;;;;;;;;17.60;99.90;;;;;;5027795;28;19940;-59
2023/03/23 14:00:33;;;;;;;;;;;17.50;99.90;;;;;;5027762;28;20343;-57
2023/03/23 14:03:17;;;;;;;;;;;17.20;99.90;;;;;;5026876;28;20015;-59
2023/03/23 14:05:45;;;;;;;;;;;17.00;99.90;;;;;;5029941;28;19917;-58
2023/03/23 14:08:13;;;;;;;;;;;16.70;99.90;;;;;;5030995;28;20394;-60
2023/03/23 14:10:41;;;;;;;;;;;16.80;99.90;;;;;;5031044;28;20477;-59
2023/03/23 14:13:11;;;;;;;;;;;16.80;99.90;;;;;;5030197;28;20761;-59
2023/03/23 14:15:42;;;;;;;;;;;16.70;99.90;;;;;;5029559;28;20375;-58
2023/03/23 14:18:12;;;;;;;;;;;16.80;99.90;;;;;;5030717;28;19913;-57
2023/03/23 14:20:39;;;;;;;;;;;16.90;99.90;;;;;;5030766;28;20398;-58
2023/03/23 14:23:05;;;;;;;;;;;16.80;99.90;;;;;;5031489;28;19962;-56
2023/03/23 14:25:31;;;;;;;;;;;16.70;99.90;;;;;;5030156;28;19917;-59